createdAt,value
2022-12-08T00:02:02.896Z,91.55
2022-12-08T00:04:51.442Z,91.78
2022-12-08T00:07:37.342Z,92.60
2022-12-08T00:10:25.114Z,92.28
2022-12-08T00:12:55.332Z,91.68
2022-12-08T00:15:23.595Z,91.70
2022-12-08T00:17:53.203Z,91.56
2022-12-08T00:20:21.389Z,91.17
2022-12-08T00:22:49.887Z,92.06
2022-12-08T00:25:18.862Z,92.20
2022-12-08T00:27:47.150Z,92.02
2022-12-08T00:30:15.497Z,92.32
2022-12-08T00:32:43.723Z,92.30
2022-12-08T00:35:13.370Z,92.38
2022-12-08T00:37:41.606Z,92.64
2022-12-08T00:40:11.231Z,92.03
2022-12-08T00:42:39.513Z,91.98
2022-12-08T00:45:08.923Z,92.09
2022-12-08T00:47:37.101Z,92.97
2022-12-08T00:50:06.816Z,92.59
2022-12-08T00:52:36.799Z,92.22
2022-12-08T00:55:06.253Z,91.62
2022-12-08T00:57:34.690Z,91.78
2022-12-08T01:00:03.258Z,92.57
2022-12-08T01:02:33.425Z,91.96
2022-12-08T01:05:01.679Z,91.61
2022-12-08T01:07:29.969Z,92.55
2022-12-08T01:09:59.677Z,92.58
2022-12-08T01:12:30.049Z,91.92
2022-12-08T01:15:02.249Z,92.06
2022-12-08T01:17:31.090Z,92.88
2022-12-08T01:19:59.250Z,92.01
2022-12-08T01:22:27.490Z,91.79
2022-12-08T01:24:55.675Z,91.95
2022-12-08T01:27:25.287Z,92.56
2022-12-08T01:29:53.516Z,93.05
2022-12-08T01:32:21.801Z,92.32
2022-12-08T01:34:50.071Z,92.14
2022-12-08T01:37:18.247Z,92.35
2022-12-08T01:39:46.460Z,92.96
2022-12-08T01:42:22.205Z,93.02
2022-12-08T01:45:02.628Z,92.39
2022-12-08T01:47:39.070Z,92.30
2022-12-08T01:50:10.489Z,92.32
2022-12-08T01:52:42.938Z,92.45
2022-12-08T01:55:18.434Z,93.27
2022-12-08T01:57:49.970Z,92.62
2022-12-08T02:00:23.018Z,93.22
2022-12-08T02:02:56.680Z,92.10
2022-12-08T02:05:28.932Z,92.61
2022-12-08T02:07:59.515Z,93.16
2022-12-08T02:10:32.179Z,92.61
2022-12-08T02:13:01.668Z,92.70
2022-12-08T02:15:38.664Z,93.07
2022-12-08T02:18:24.539Z,92.50
2022-12-08T02:20:59.523Z,93.18
2022-12-08T02:23:37.790Z,92.87
2022-12-08T02:26:44.234Z,92.71
2022-12-08T02:30:07.971Z,92.16
2022-12-08T02:33:30.015Z,92.89
2022-12-08T02:36:06.353Z,92.91
2022-12-08T02:38:50.002Z,92.95
2022-12-08T02:41:33.125Z,91.88
2022-12-08T02:44:08.962Z,93.10
2022-12-08T02:46:42.097Z,92.99
2022-12-08T02:49:11.034Z,92.63
2022-12-08T02:51:40.652Z,92.23
2022-12-08T02:54:09.073Z,92.21
2022-12-08T02:56:56.027Z,92.14
2022-12-08T02:59:41.432Z,92.05
2022-12-08T03:02:30.174Z,91.98
2022-12-08T03:05:07.894Z,92.77
2022-12-08T03:07:42.966Z,92.80
2022-12-08T03:10:14.906Z,92.87
2022-12-08T03:12:49.302Z,92.53
2022-12-08T03:15:21.673Z,91.92
2022-12-08T03:17:57.763Z,92.08
2022-12-08T03:20:29.368Z,92.60
2022-12-08T03:23:01.458Z,92.47
2022-12-08T03:25:33.293Z,92.56
2022-12-08T03:28:01.993Z,92.67
2022-12-08T03:30:33.731Z,92.91
2022-12-08T03:33:07.916Z,92.66
2022-12-08T03:35:39.043Z,92.65
2022-12-08T03:38:12.162Z,92.26
2022-12-08T03:40:41.068Z,93.18
2022-12-08T03:43:09.538Z,92.71
2022-12-08T03:45:37.767Z,92.64
2022-12-08T03:48:06.427Z,92.35
2022-12-08T03:50:34.606Z,92.25
2022-12-08T03:53:02.803Z,92.45
2022-12-08T03:55:32.356Z,93.34
2022-12-08T03:58:02.903Z,93.17
2022-12-08T04:00:31.331Z,92.39
2022-12-08T04:02:59.551Z,92.10
2022-12-08T04:05:27.837Z,92.38
2022-12-08T04:07:58.662Z,92.00
2022-12-08T04:10:26.993Z,92.88
2022-12-08T04:12:58.413Z,92.61
2022-12-08T04:15:26.631Z,93.01
2022-12-08T04:17:54.912Z,92.85
2022-12-08T04:20:23.226Z,92.76
2022-12-08T04:22:51.426Z,92.61
2022-12-08T04:25:19.801Z,92.10
2022-12-08T04:27:48.144Z,92.45
2022-12-08T04:30:17.913Z,93.17
2022-12-08T04:32:47.705Z,92.36
2022-12-08T04:35:16.031Z,93.20
2022-12-08T04:37:44.388Z,92.65
2022-12-08T04:40:14.885Z,92.93
2022-12-08T04:42:44.271Z,92.57
2022-12-08T04:45:12.769Z,92.06
2022-12-08T04:47:42.635Z,92.16
2022-12-08T04:50:11.652Z,92.72
2022-12-08T04:52:39.907Z,93.13
2022-12-08T04:55:09.107Z,92.98
2022-12-08T04:57:37.354Z,92.60
2022-12-08T05:00:07.543Z,92.88
2022-12-08T05:02:36.356Z,92.65
2022-12-08T05:05:07.072Z,92.53
2022-12-08T05:07:35.360Z,92.73
2022-12-08T05:10:04.317Z,92.85
2022-12-08T05:12:32.734Z,93.45
2022-12-08T05:15:00.973Z,93.35
2022-12-08T05:17:29.272Z,93.13
2022-12-08T05:19:57.503Z,93.24
2022-12-08T05:22:27.371Z,93.09
2022-12-08T05:24:55.548Z,92.83
2022-12-08T05:27:24.031Z,93.23
2022-12-08T05:29:52.272Z,93.27
2022-12-08T05:32:20.524Z,91.98
2022-12-08T05:34:48.748Z,92.47
2022-12-08T05:37:17.034Z,92.15
2022-12-08T05:39:46.571Z,92.75
2022-12-08T05:42:15.159Z,93.13
2022-12-08T05:44:43.441Z,92.68
2022-12-08T05:47:11.663Z,92.67
2022-12-08T05:49:40.878Z,92.96
2022-12-08T05:52:09.133Z,92.38
2022-12-08T05:54:38.104Z,92.85
2022-12-08T05:57:07.859Z,93.13
2022-12-08T05:59:37.101Z,92.70
2022-12-08T06:02:05.382Z,93.07
2022-12-08T06:04:33.708Z,92.42
2022-12-08T06:07:01.925Z,92.78
2022-12-08T06:09:30.121Z,92.35
2022-12-08T06:11:58.312Z,92.15
2022-12-08T06:14:28.020Z,93.22
2022-12-08T06:16:56.289Z,92.02
2022-12-08T06:19:24.582Z,92.96
2022-12-08T06:21:52.755Z,92.55
2022-12-08T06:24:20.928Z,93.38
2022-12-08T06:26:49.124Z,93.03
2022-12-08T06:29:17.621Z,93.02
2022-12-08T06:31:47.248Z,93.40
2022-12-08T06:34:15.520Z,93.22
2022-12-08T06:36:43.769Z,92.90
2022-12-08T06:39:12.338Z,93.20
2022-12-08T06:41:54.424Z,92.22
2022-12-08T06:44:22.731Z,92.86
2022-12-08T06:46:52.337Z,93.18
2022-12-08T06:49:20.672Z,92.23
2022-12-08T06:51:48.859Z,92.14
2022-12-08T06:54:17.036Z,92.44
2022-12-08T06:56:45.286Z,92.83
2022-12-08T06:59:13.511Z,93.41
2022-12-08T07:01:42.123Z,92.93
2022-12-08T07:04:11.769Z,92.47
2022-12-08T07:06:40.219Z,92.16
2022-12-08T07:09:08.446Z,92.37
2022-12-08T07:11:36.765Z,92.76
2022-12-08T07:14:06.736Z,91.87
2022-12-08T07:16:34.992Z,92.49
2022-12-08T07:19:03.302Z,91.92
2022-12-08T07:21:32.925Z,92.70
2022-12-08T07:24:01.587Z,92.15
2022-12-08T07:26:29.802Z,92.89
2022-12-08T07:28:58.018Z,93.02
2022-12-08T07:31:28.483Z,92.77
2022-12-08T07:33:57.461Z,92.56
2022-12-08T07:36:26.699Z,92.20
2022-12-08T07:38:56.776Z,92.34
2022-12-08T07:41:27.148Z,92.96
2022-12-08T07:43:55.509Z,91.96
2022-12-08T07:46:26.130Z,92.14
2022-12-08T07:48:54.845Z,92.12
2022-12-08T07:51:23.082Z,92.10
2022-12-08T07:53:54.608Z,92.36
2022-12-08T07:56:24.593Z,93.10
2022-12-08T07:58:53.787Z,92.51
2022-12-08T08:01:25.447Z,92.42
2022-12-08T08:03:54.867Z,93.22
2022-12-08T08:06:23.178Z,92.16
2022-12-08T08:08:51.458Z,93.27
2022-12-08T08:11:21.579Z,92.56
2022-12-08T08:13:52.171Z,93.10
2022-12-08T08:16:21.612Z,92.69
2022-12-08T08:18:51.769Z,92.55
2022-12-08T08:21:45.003Z,92.22
2022-12-08T08:24:10.578Z,92.37
2022-12-08T08:26:39.096Z,92.99
2022-12-08T08:29:08.739Z,93.05
2022-12-08T08:31:37.037Z,92.97
2022-12-08T08:34:06.535Z,92.64
2022-12-08T08:36:34.886Z,93.37
2022-12-08T08:39:03.246Z,92.36
2022-12-08T08:41:31.504Z,93.29
2022-12-08T08:43:59.697Z,92.41
2022-12-08T08:46:29.543Z,92.96
2022-12-08T08:48:58.207Z,93.46
2022-12-08T08:51:26.457Z,92.45
2022-12-08T08:53:54.665Z,93.19
2022-12-08T08:56:23.075Z,92.71
2022-12-08T08:58:52.705Z,93.81
2022-12-08T09:01:25.078Z,92.95
2022-12-08T09:03:56.043Z,93.35
2022-12-08T09:06:25.439Z,93.81
2022-12-08T09:08:53.742Z,93.62
2022-12-08T09:11:23.415Z,93.78
2022-12-08T09:13:52.797Z,93.28
2022-12-08T09:16:22.053Z,92.77
2022-12-08T09:18:50.422Z,93.58
2022-12-08T09:21:23.333Z,93.14
2022-12-08T09:23:52.438Z,93.00
2022-12-08T09:26:22.416Z,94.18
2022-12-08T09:28:51.650Z,93.25
2022-12-08T09:31:21.806Z,92.95
2022-12-08T09:33:52.548Z,93.46
2022-12-08T09:36:23.449Z,93.27
2022-12-08T09:38:53.784Z,92.91
2022-12-08T09:41:38.819Z,93.47
2022-12-08T09:44:42.115Z,93.97
2022-12-08T09:47:20.620Z,93.43
2022-12-08T09:49:57.553Z,94.09
2022-12-08T09:52:31.569Z,94.29
2022-12-08T09:55:05.334Z,93.92
2022-12-08T09:57:33.582Z,93.45
2022-12-08T10:00:06.999Z,94.66
2022-12-08T10:02:35.731Z,94.24
2022-12-08T10:05:04.109Z,94.42
2022-12-08T10:07:45.022Z,94.03
2022-12-08T10:10:28.940Z,93.94
2022-12-08T10:13:06.221Z,94.16
2022-12-08T10:15:48.485Z,94.27
2022-12-08T10:18:20.547Z,94.07
2022-12-08T10:20:51.826Z,94.48
2022-12-08T10:23:31.363Z,94.49
2022-12-08T10:26:04.233Z,94.93
2022-12-08T10:28:38.796Z,94.35
2022-12-08T10:31:18.495Z,94.47
2022-12-08T10:33:50.573Z,94.64
2022-12-08T10:36:18.827Z,94.52
2022-12-08T10:38:48.386Z,93.94
2022-12-08T10:41:18.624Z,93.92
2022-12-08T10:43:50.546Z,94.32
2022-12-08T10:46:21.742Z,94.56
2022-12-08T10:48:55.731Z,94.18
2022-12-08T10:51:28.328Z,94.21
2022-12-08T10:53:59.875Z,93.61
2022-12-08T10:56:30.708Z,94.19
2022-12-08T10:59:15.773Z,94.11
2022-12-08T11:01:48.164Z,93.57
2022-12-08T11:04:20.420Z,94.16
2022-12-08T11:06:50.710Z,94.80
2022-12-08T11:09:50.774Z,93.74
2022-12-08T11:12:21.077Z,94.51
2022-12-08T11:14:52.352Z,94.09
2022-12-08T11:17:29.429Z,94.57
2022-12-08T11:20:01.600Z,94.77
2022-12-08T11:22:33.592Z,94.87
2022-12-08T11:25:11.560Z,94.42
2022-12-08T11:27:43.571Z,94.62
2022-12-08T11:30:18.335Z,94.77
2022-12-08T11:32:50.314Z,94.14
2022-12-08T11:35:26.760Z,93.85
2022-12-08T11:38:19.765Z,93.99
2022-12-08T11:40:53.553Z,94.36
2022-12-08T11:43:30.518Z,94.13
2022-12-08T11:46:02.014Z,94.51
2022-12-08T11:48:37.262Z,94.20
2022-12-08T11:51:10.644Z,94.60
2022-12-08T11:53:45.692Z,93.71
2022-12-08T11:56:21.806Z,93.94
2022-12-08T11:58:54.493Z,94.26
2022-12-08T12:01:25.141Z,93.84
2022-12-08T12:04:10.980Z,94.21
2022-12-08T12:07:11.091Z,93.75
2022-12-08T12:09:52.979Z,93.95
2022-12-08T12:12:40.067Z,93.84
2022-12-08T12:16:06.724Z,93.95
2022-12-08T12:18:45.163Z,94.18
2022-12-08T12:21:19.879Z,93.93
2022-12-08T12:23:54.113Z,94.20
2022-12-08T12:26:26.292Z,94.15
2022-12-08T12:29:01.360Z,93.63
2022-12-08T12:31:32.198Z,93.71
2022-12-08T12:34:09.651Z,94.16
2022-12-08T12:36:51.966Z,93.79
2022-12-08T12:39:25.411Z,94.03
2022-12-08T12:41:56.753Z,94.13
2022-12-08T12:44:43.247Z,93.48
2022-12-08T12:47:51.035Z,94.00
2022-12-08T12:50:44.497Z,93.73
2022-12-08T12:53:54.178Z,93.96
2022-12-08T12:56:52.551Z,93.98
2022-12-08T12:59:43.495Z,94.09
2022-12-08T13:02:25.104Z,93.90
2022-12-08T13:05:03.503Z,92.95
2022-12-08T13:07:35.111Z,90.82
2022-12-08T13:10:17.081Z,90.83
2022-12-08T13:12:46.870Z,91.27
2022-12-08T13:15:20.700Z,90.55
2022-12-08T13:17:50.437Z,90.94
2022-12-08T13:20:26.149Z,90.73
2022-12-08T13:23:24.527Z,90.49
2022-12-08T13:26:10.421Z,89.85
2022-12-08T13:29:19.346Z,90.27
2022-12-08T13:31:51.876Z,89.90
2022-12-08T13:34:30.364Z,89.88
2022-12-08T13:37:22.171Z,89.68
2022-12-08T13:39:56.174Z,89.53
2022-12-08T13:42:32.444Z,89.71
2022-12-08T13:45:48.680Z,89.87
2022-12-08T13:57:19.674Z,89.31
2022-12-08T13:59:44.477Z,88.98
2022-12-08T14:02:19.702Z,88.96
2022-12-08T14:07:37.950Z,89.07
2022-12-08T14:10:10.255Z,89.11
2022-12-08T14:12:39.008Z,88.56
2022-12-08T14:15:09.512Z,89.05
2022-12-08T14:17:40.767Z,88.57
2022-12-08T14:20:23.513Z,88.56
2022-12-08T14:22:54.726Z,88.46
2022-12-08T14:25:25.609Z,88.84
2022-12-08T14:28:01.125Z,88.16
2022-12-08T14:30:33.307Z,88.12
2022-12-08T14:33:03.541Z,88.39
2022-12-08T14:35:33.913Z,88.91
2022-12-08T14:38:05.280Z,88.24
2022-12-08T14:40:36.830Z,88.64
2022-12-08T14:43:17.516Z,88.10
2022-12-08T14:45:53.461Z,88.24
2022-12-08T14:48:25.350Z,87.89
2022-12-08T14:51:06.342Z,88.00
2022-12-08T14:53:40.618Z,88.05
2022-12-08T14:56:21.268Z,88.21
2022-12-08T14:58:52.917Z,88.37
2022-12-08T15:01:24.397Z,88.67
2022-12-08T15:03:54.704Z,88.74
2022-12-08T15:06:23.658Z,88.68
2022-12-08T15:08:56.210Z,88.54
2022-12-08T15:11:36.912Z,87.75
2022-12-08T15:14:05.522Z,88.18
2022-12-08T15:16:41.380Z,88.59
2022-12-08T15:19:23.242Z,88.64
2022-12-08T15:21:52.312Z,88.99
2022-12-08T15:24:27.747Z,89.12
2022-12-08T15:26:57.687Z,87.96
2022-12-08T15:29:28.787Z,88.81
2022-12-08T15:32:00.263Z,88.82
2022-12-08T15:34:28.935Z,88.89
2022-12-08T15:36:57.213Z,88.24
2022-12-08T15:39:38.053Z,88.78
2022-12-08T15:42:14.206Z,88.47
2022-12-08T15:44:43.361Z,89.39
2022-12-08T15:47:18.002Z,88.57
2022-12-08T15:49:47.128Z,88.73
2022-12-08T15:52:19.710Z,89.27
2022-12-08T15:54:49.006Z,89.10
2022-12-08T15:58:04.071Z,88.99
2022-12-08T16:00:51.763Z,89.33
2022-12-08T16:07:04.762Z,89.05
2022-12-08T16:09:12.767Z,89.57
2022-12-08T16:12:08.192Z,88.76
2022-12-08T16:17:31.843Z,89.17
2022-12-08T16:20:00.799Z,89.26
2022-12-08T16:25:22.157Z,89.33
2022-12-08T16:28:17.514Z,88.92
2022-12-08T16:30:45.597Z,89.42
2022-12-08T16:33:14.333Z,89.30
2022-12-08T16:35:43.457Z,89.27
2022-12-08T16:38:16.301Z,89.13
2022-12-08T16:41:04.141Z,88.95
2022-12-08T16:43:33.659Z,89.34
2022-12-08T16:46:04.347Z,88.87
2022-12-08T16:48:32.727Z,88.90
2022-12-08T16:51:01.470Z,89.49
2022-12-08T16:53:29.747Z,89.56
2022-12-08T16:55:58.030Z,88.71
2022-12-08T16:58:26.235Z,88.68
2022-12-08T17:00:54.906Z,89.40
2022-12-08T17:03:24.870Z,88.73
2022-12-08T17:05:53.384Z,88.81
2022-12-08T17:08:21.863Z,89.02
2022-12-08T17:11:07.162Z,89.06
2022-12-08T17:13:35.882Z,89.14
2022-12-08T17:16:04.603Z,89.46
2022-12-08T17:18:34.269Z,89.53
2022-12-08T17:21:02.521Z,89.38
2022-12-08T17:23:30.711Z,89.88
2022-12-08T17:26:00.285Z,89.73
2022-12-08T17:28:51.920Z,89.79
2022-12-08T17:31:17.867Z,89.47
2022-12-08T17:33:47.464Z,89.45
2022-12-08T17:36:18.095Z,89.88
2022-12-08T17:38:46.301Z,89.64
2022-12-08T17:41:14.499Z,90.33
2022-12-08T17:43:42.978Z,90.63
2022-12-08T17:46:11.355Z,90.14
2022-12-08T17:48:42.262Z,89.99
2022-12-08T17:51:12.128Z,89.93
2022-12-08T17:53:40.931Z,89.98
2022-12-08T17:56:18.936Z,90.24
2022-12-08T17:58:52.849Z,90.12
2022-12-08T18:01:23.827Z,90.00
2022-12-08T18:03:52.670Z,90.10
2022-12-08T18:06:24.626Z,89.82
2022-12-08T18:08:55.109Z,89.76
2022-12-08T18:11:24.492Z,89.87
2022-12-08T18:13:54.088Z,90.08
2022-12-08T18:16:26.015Z,90.10
2022-12-08T18:18:54.807Z,90.13
2022-12-08T18:21:24.309Z,90.47
2022-12-08T18:23:53.226Z,89.95
2022-12-08T18:26:22.024Z,90.37
2022-12-08T18:28:50.527Z,90.27
2022-12-08T18:31:22.614Z,90.28
2022-12-08T18:33:51.956Z,90.60
2022-12-08T18:36:27.431Z,90.50
2022-12-08T18:38:55.694Z,90.57
2022-12-08T18:41:26.763Z,90.59
2022-12-08T18:43:57.002Z,90.41
2022-12-08T18:46:26.372Z,90.11
2022-12-08T18:48:54.926Z,90.34
2022-12-08T18:51:25.673Z,90.42
2022-12-08T18:53:54.632Z,90.25
2022-12-08T18:56:26.170Z,90.04
2022-12-08T18:59:02.979Z,90.25
2022-12-08T19:01:32.428Z,89.98
2022-12-08T19:06:51.142Z,90.44
2022-12-08T19:09:20.556Z,90.34
2022-12-08T19:11:48.992Z,90.34
2022-12-08T19:14:19.213Z,90.37
2022-12-08T19:16:51.069Z,90.24
2022-12-08T19:19:19.489Z,90.70
2022-12-08T19:21:47.748Z,90.59
2022-12-08T19:24:17.416Z,90.73
2022-12-08T19:26:46.190Z,90.65
2022-12-08T19:29:14.612Z,91.19
2022-12-08T19:31:42.964Z,90.92
2022-12-08T19:34:13.193Z,91.24
2022-12-08T19:36:43.248Z,91.56
2022-12-08T19:39:35.034Z,90.77
2022-12-08T19:42:21.055Z,90.55
2022-12-08T19:44:55.085Z,90.30
2022-12-08T19:47:26.464Z,90.53
2022-12-08T19:50:16.183Z,90.47
2022-12-08T19:52:45.140Z,90.50
2022-12-08T19:55:14.992Z,90.45
2022-12-08T19:57:43.390Z,90.36
2022-12-08T20:00:14.145Z,90.29
2022-12-08T20:02:42.622Z,90.64
2022-12-08T20:05:15.859Z,90.56
2022-12-08T20:07:44.487Z,90.48
2022-12-08T20:10:21.892Z,90.38
2022-12-08T20:12:50.173Z,90.29
2022-12-08T20:15:18.437Z,90.44
2022-12-08T20:17:46.667Z,90.07
2022-12-08T20:20:15.384Z,90.13
2022-12-08T20:22:45.283Z,90.20
2022-12-08T20:25:15.427Z,89.93
2022-12-08T20:27:44.251Z,90.26
2022-12-08T20:30:17.093Z,90.23
2022-12-08T20:32:45.819Z,90.51
2022-12-08T20:35:14.162Z,90.17
2022-12-08T20:37:42.786Z,90.51
2022-12-08T20:40:11.856Z,90.62
2022-12-08T20:42:41.536Z,90.23
2022-12-08T20:45:10.705Z,90.43
2022-12-08T20:47:39.210Z,90.81
2022-12-08T20:50:09.837Z,91.22
2022-12-08T20:52:38.952Z,91.52
2022-12-08T20:55:09.398Z,91.81
2022-12-08T20:57:38.274Z,91.81
2022-12-08T21:00:10.499Z,92.16
2022-12-08T21:02:45.104Z,92.31
2022-12-08T21:05:16.392Z,92.56
2022-12-08T21:07:44.972Z,92.70
2022-12-08T21:10:13.353Z,92.73
2022-12-08T21:12:41.807Z,92.82
2022-12-08T21:15:13.356Z,92.54
2022-12-08T21:17:42.036Z,92.86
2022-12-08T21:20:11.564Z,93.17
2022-12-08T21:22:40.994Z,92.95
2022-12-08T21:25:10.497Z,93.08
2022-12-08T21:27:39.432Z,93.31
2022-12-08T21:30:10.833Z,92.87
2022-12-08T21:32:41.242Z,92.86
2022-12-08T21:35:10.918Z,93.05
2022-12-08T21:37:39.395Z,93.03
2022-12-08T21:40:09.700Z,92.95
2022-12-08T21:42:46.277Z,92.74
2022-12-08T21:45:17.230Z,92.73
2022-12-08T21:47:48.218Z,92.79
2022-12-08T21:50:22.545Z,92.15
2022-12-08T21:52:51.027Z,93.01
2022-12-08T21:55:20.357Z,92.78
2022-12-08T21:57:49.887Z,92.83
2022-12-08T22:00:20.255Z,92.64
2022-12-08T22:02:51.228Z,93.14
2022-12-08T22:05:19.688Z,93.24
2022-12-08T22:07:48.367Z,92.76
2022-12-08T22:10:20.100Z,92.85
2022-12-08T22:12:48.819Z,93.09
2022-12-08T22:15:17.364Z,93.19
2022-12-08T22:17:45.670Z,93.40
2022-12-08T22:20:17.632Z,92.95
2022-12-08T22:22:46.860Z,93.07
2022-12-08T22:25:15.102Z,93.04
2022-12-08T22:27:43.698Z,93.61
2022-12-08T22:30:13.441Z,92.92
2022-12-08T22:32:41.983Z,93.23
2022-12-08T22:35:11.708Z,93.48
2022-12-08T22:37:41.596Z,93.59
2022-12-08T22:40:12.092Z,92.75
2022-12-08T22:42:40.628Z,92.92
2022-12-08T22:45:11.542Z,93.53
2022-12-08T22:47:39.744Z,93.17
2022-12-08T22:50:09.013Z,93.64
2022-12-08T22:52:37.912Z,93.31
2022-12-08T22:55:09.548Z,92.80
2022-12-08T22:57:37.855Z,92.75
2022-12-08T23:00:11.509Z,93.76
2022-12-08T23:02:40.539Z,92.89
2022-12-08T23:05:10.458Z,93.63
2022-12-08T23:07:40.286Z,93.73
2022-12-08T23:10:12.042Z,92.76
2022-12-08T23:12:40.508Z,92.93
2022-12-08T23:15:10.078Z,93.44
2022-12-08T23:17:38.556Z,92.88
2022-12-08T23:20:09.267Z,93.83
2022-12-08T23:22:37.810Z,93.51
2022-12-08T23:25:06.946Z,93.26
2022-12-08T23:27:38.263Z,93.08
2022-12-08T23:30:10.108Z,93.07
2022-12-08T23:32:39.117Z,93.38
2022-12-08T23:35:09.489Z,93.01
2022-12-08T23:37:37.858Z,94.18
2022-12-08T23:40:08.773Z,94.18
2022-12-08T23:42:38.588Z,93.50
2022-12-08T23:45:08.490Z,93.93
2022-12-08T23:47:37.016Z,93.50
2022-12-08T23:50:07.866Z,93.47
2022-12-08T23:52:39.254Z,93.91
2022-12-08T23:55:11.116Z,93.75
2022-12-08T23:57:41.000Z,93.30
